Time;durP1;ratioP1;P1;durP2;ratioP2;P2;SDS_P1;SDS_P2;PMS_P1;PMS_P2;Temp;Humidity;BMP_temperature;BMP_pressure;BME280_temperature;BME280_humidity;BME280_pressure;Samples;Min_cycle;Max_cycle;Signal;HPM_P1;HPM_P2
2022/10/02 00:01:50;;;;;;;21.75;4.65;;;11.00;99.90;;;;;;5029555;28;20059;-77
2022/10/02 00:04:28;;;;;;;16.67;4.07;;;11.00;99.90;;;;;;5062778;28;20601;-78
2022/10/02 00:06:59;;;;;;;15.30;4.38;;;11.00;99.90;;;;;;5083720;28;21400;-78
2022/10/02 00:09:47;;;;;;;17.67;4.32;;;11.00;99.90;;;;;;5084263;28;20095;-77
2022/10/02 00:12:19;;;;;;;16.80;4.57;;;11.00;99.90;;;;;;5081168;28;20441;-77
2022/10/02 00:14:47;;;;;;;20.00;5.18;;;11.00;99.90;;;;;;5077896;28;20486;-77
2022/10/02 00:17:24;;;;;;;24.25;4.55;;;11.00;99.90;;;;;;5058687;28;20128;-76
2022/10/02 00:19:54;;;;;;;17.42;4.57;;;11.00;99.90;;;;;;5065439;28;20493;-77
2022/10/02 00:22:38;;;;;;;16.40;3.85;;;11.00;99.90;;;;;;5081190;28;20045;-76
2022/10/02 00:25:22;;;;;;;17.65;4.22;;;11.00;99.90;;;;;;5081061;28;20036;-77
2022/10/02 00:28:00;;;;;;;17.33;3.53;;;11.00;99.90;;;;;;5065450;28;20499;-75
2022/10/02 00:30:30;;;;;;;20.33;4.10;;;11.00;99.90;;;;;;5081098;28;20047;-75
2022/10/02 00:33:17;;;;;;;17.23;4.22;;;11.00;99.90;;;;;;5079122;28;20044;-75
2022/10/02 00:36:02;;;;;;;19.45;4.53;;;10.90;99.90;;;;;;5063186;28;20143;-76
2022/10/02 00:38:42;;;;;;;17.45;4.43;;;10.90;99.90;;;;;;5078405;28;20402;-75
2022/10/02 00:41:49;;;;;;;22.23;4.53;;;10.90;99.90;;;;;;5081948;28;20047;-75
2022/10/02 00:44:59;;;;;;;19.90;4.38;;;10.90;99.90;;;;;;5019383;28;20176;-75
2022/10/02 00:47:45;;;;;;;21.38;4.00;;;10.90;99.90;;;;;;5022534;28;20029;-76
2022/10/02 00:50:19;;;;;;;24.75;5.03;;;10.90;99.90;;;;;;5009839;28;20188;-76
2022/10/02 00:53:04;;;;;;;17.48;4.85;;;10.90;99.90;;;;;;4997185;28;20049;-76
2022/10/02 00:55:50;;;;;;;18.08;5.47;;;10.90;99.90;;;;;;5017925;28;20065;-75
2022/10/02 00:58:33;;;;;;;17.75;4.60;;;10.90;99.90;;;;;;5018614;28;20616;-77
2022/10/02 01:01:06;;;;;;;18.13;4.63;;;10.90;99.90;;;;;;5019717;28;21735;-76
2022/10/02 01:03:35;;;;;;;21.60;5.00;;;11.00;99.90;;;;;;5003433;28;20460;-77
2022/10/02 01:06:01;;;;;;;17.33;4.32;;;11.00;99.90;;;;;;5018581;28;20705;-77
2022/10/02 01:08:27;;;;;;;21.90;4.57;;;11.00;99.90;;;;;;5018433;28;20056;-77
2022/10/02 01:10:53;;;;;;;20.08;4.07;;;11.00;99.90;;;;;;5018045;28;20046;-79
2022/10/02 01:13:19;;;;;;;18.88;4.18;;;11.00;99.90;;;;;;5025985;28;20128;-79
2022/10/02 01:15:54;;;;;;;22.73;4.65;;;11.10;99.90;;;;;;5057708;28;20047;-78
2022/10/02 01:18:20;;;;;;;20.45;4.47;;;11.10;99.90;;;;;;5084242;28;20086;-78
2022/10/02 01:20:49;;;;;;;19.52;4.40;;;11.20;99.90;;;;;;5067690;28;20079;-79
2022/10/02 01:23:17;;;;;;;20.52;5.07;;;11.30;99.90;;;;;;5055108;28;20051;-80
2022/10/02 01:25:43;;;;;;;19.90;4.47;;;11.40;99.90;;;;;;5086946;28;20085;-79
2022/10/02 01:28:10;;;;;;;19.75;4.40;;;11.50;99.90;;;;;;5088521;28;20041;-80
2022/10/02 01:30:43;;;;;;;15.95;4.30;;;11.60;99.90;;;;;;5086078;28;20072;-80
2022/10/02 01:33:11;;;;;;;19.48;4.45;;;11.60;99.90;;;;;;5084038;28;20058;-81
2022/10/02 01:35:37;;;;;;;;;;;11.60;99.90;;;;;;5092137;28;20046;-79
2022/10/02 01:38:06;;;;;;;16.25;4.00;;;11.70;99.90;;;;;;5091277;28;19951;-81
2022/10/02 01:40:35;;;;;;;15.68;3.78;;;11.80;99.90;;;;;;5086610;28;20076;-79
2022/10/02 01:43:17;;;;;;;18.50;4.38;;;11.80;99.90;;;;;;5047081;28;20136;-77
2022/10/02 01:46:02;;;;;;;15.25;4.03;;;11.90;99.90;;;;;;5080656;28;20087;-77
2022/10/02 01:48:51;;;;;;;17.10;4.20;;;11.90;99.90;;;;;;5081053;28;20154;-77
2022/10/02 01:51:41;;;;;;;16.98;4.35;;;11.90;99.90;;;;;;5047367;28;20056;-77
2022/10/02 01:54:44;;;;;;;12.85;3.70;;;11.90;99.90;;;;;;5083368;28;21503;-77
2022/10/02 01:57:45;;;;;;;18.95;4.13;;;11.80;99.90;;;;;;5078847;28;20083;-79
2022/10/02 02:00:19;;;;;;;15.75;4.03;;;11.80;99.90;;;;;;5084714;28;20036;-77
2022/10/02 02:03:03;;;;;;;15.27;3.55;;;11.70;99.90;;;;;;5063990;28;20106;-78
2022/10/02 02:05:41;;;;;;;18.95;3.75;;;11.70;99.90;;;;;;5078250;28;20063;-77
2022/10/02 02:08:18;;;;;;;17.52;3.60;;;11.60;99.90;;;;;;5077614;28;20218;-78
2022/10/02 02:11:10;;;;;;;18.67;3.60;;;11.70;99.90;;;;;;5085669;28;20094;-76
2022/10/02 02:14:15;;;;;;;17.38;3.97;;;11.60;99.90;;;;;;5066728;28;20055;-77
2022/10/02 02:16:41;;;;;;;15.77;3.33;;;11.60;99.90;;;;;;5042397;28;20055;-77
2022/10/02 02:19:22;;;;;;;20.88;3.75;;;11.50;99.90;;;;;;5066766;28;20079;-77
2022/10/02 02:22:13;;;;;;;12.98;3.20;;;11.50;99.90;;;;;;5067585;28;20103;-77
2022/10/02 02:24:56;;;;;;;13.98;3.85;;;11.50;99.90;;;;;;5070303;28;20040;-77
2022/10/02 02:27:26;;;;;;;12.48;3.03;;;11.40;99.90;;;;;;5070730;28;20074;-76
2022/10/02 02:29:56;;;;;;;15.10;3.95;;;11.40;99.90;;;;;;5069627;28;20125;-76
2022/10/02 02:32:26;;;;;;;12.68;3.28;;;11.30;99.90;;;;;;5065104;28;20056;-78
2022/10/02 02:35:16;;;;;;;12.68;3.08;;;11.30;99.90;;;;;;5069969;28;20036;-77
2022/10/02 02:37:44;;;;;;;15.35;3.10;;;11.30;99.90;;;;;;5050164;28;20047;-79
2022/10/02 02:40:22;;;;;;;15.70;2.90;;;11.20;99.90;;;;;;5071523;28;20063;-78
2022/10/02 02:42:58;;;;;;;14.35;3.20;;;11.20;99.90;;;;;;5068543;28;20455;-75
2022/10/02 02:45:35;;;;;;;16.25;3.08;;;11.20;99.90;;;;;;5061282;28;20381;-76
2022/10/02 02:48:29;;;;;;;13.18;2.55;;;11.20;99.90;;;;;;5068574;28;20047;-77
2022/10/02 02:51:02;;;;;;;16.15;2.88;;;11.10;99.90;;;;;;5002651;28;20541;-79
2022/10/02 02:53:50;;;;;;;12.15;3.13;;;11.00;99.90;;;;;;5068800;28;20044;-77
2022/10/02 02:56:18;;;;;;;12.50;3.08;;;11.00;99.90;;;;;;5067821;28;20123;-78
2022/10/02 02:58:53;;;;;;;19.02;3.58;;;11.00;99.90;;;;;;5070557;28;20052;-77
2022/10/02 03:01:19;;;;;;;15.55;3.08;;;11.00;99.90;;;;;;5067631;28;20052;-77
2022/10/02 03:03:44;;;;;;;13.70;3.00;;;11.00;99.90;;;;;;5067950;28;20040;-77
2022/10/02 03:06:19;;;;;;;15.43;3.05;;;11.00;99.90;;;;;;5063484;28;21597;-77
2022/10/02 03:08:49;;;;;;;13.88;2.83;;;11.00;99.90;;;;;;5046453;28;20116;-77
2022/10/02 03:11:39;;;;;;;12.45;3.10;;;11.00;99.90;;;;;;5070799;28;20057;-77
2022/10/02 03:14:24;;;;;;;12.98;2.97;;;10.90;99.90;;;;;;5069228;28;20048;-78
2022/10/02 03:17:03;;;;;;;8.35;2.55;;;10.90;99.90;;;;;;5069662;28;20058;-76
2022/10/02 03:19:29;;;;;;;14.02;2.65;;;10.90;99.90;;;;;;5077110;28;20584;-78
2022/10/02 03:22:21;;;;;;;11.68;2.80;;;10.90;99.90;;;;;;5081192;28;20130;-77
2022/10/02 03:25:05;;;;;;;11.13;2.63;;;10.90;99.90;;;;;;5078442;28;20100;-77
2022/10/02 03:27:34;;;;;;;14.40;2.38;;;10.90;99.90;;;;;;5083418;28;20044;-80
2022/10/02 03:30:07;;;;;;;8.13;2.10;;;10.90;99.90;;;;;;5066554;28;20126;-80
2022/10/02 03:32:35;;;;;;;13.40;2.45;;;10.90;99.90;;;;;;5090884;28;20152;-80
2022/10/02 03:35:04;;;;;;;10.55;2.50;;;10.90;99.90;;;;;;5047923;28;21432;-80
2022/10/02 03:37:30;;;;;;;9.43;2.22;;;10.80;99.90;;;;;;5066566;28;20308;-79
2022/10/02 03:40:04;;;;;;;12.95;2.65;;;10.80;99.90;;;;;;5081745;28;20035;-76
2022/10/02 03:42:33;;;;;;;9.38;2.28;;;10.80;99.90;;;;;;5084247;28;20091;-77
2022/10/02 03:44:59;;;;;;;11.60;2.17;;;10.70;99.90;;;;;;5086114;28;20094;-78
2022/10/02 03:47:24;;;;;;;9.68;2.50;;;10.70;99.90;;;;;;5088268;28;20413;-80
2022/10/02 03:49:50;;;;;;;10.80;2.40;;;10.70;99.90;;;;;;5085397;28;20036;-81
2022/10/02 03:52:18;;;;;;;8.13;2.17;;;10.60;99.90;;;;;;5080933;28;20455;-78
2022/10/02 03:54:45;;;;;;;12.27;2.65;;;10.70;99.90;;;;;;5080473;28;20040;-75
2022/10/02 03:57:16;;;;;;;10.90;2.83;;;10.60;99.90;;;;;;5080585;28;20051;-73
2022/10/02 03:59:45;;;;;;;12.88;3.45;;;10.70;99.90;;;;;;5080158;28;20052;-73
2022/10/02 04:02:30;;;;;;;16.50;3.53;;;10.80;99.90;;;;;;5082783;28;20548;-76
2022/10/02 04:05:21;;;;;;;18.38;4.25;;;10.80;99.90;;;;;;5049433;28;20053;-76
2022/10/02 04:07:50;;;;;;;14.05;3.58;;;10.80;99.90;;;;;;5083669;28;20047;-79
2022/10/02 04:10:46;;;;;;;12.18;3.42;;;10.90;99.90;;;;;;5067876;28;20051;-78
2022/10/02 04:13:33;;;;;;;16.30;3.75;;;10.80;99.90;;;;;;5080107;28;20079;-79
2022/10/02 04:16:14;;;;;;;14.40;3.75;;;10.90;99.90;;;;;;5082153;28;20047;-78
2022/10/02 04:18:53;;;;;;;16.00;4.05;;;10.90;99.90;;;;;;5083895;28;20036;-78
2022/10/02 04:21:50;;;;;;;13.10;4.22;;;10.90;99.90;;;;;;5083202;28;20036;-77
2022/10/02 04:24:39;;;;;;;15.00;3.95;;;10.80;99.90;;;;;;5084170;28;20071;-78
2022/10/02 04:27:13;;;;;;;16.77;3.88;;;10.80;99.90;;;;;;5082834;28;20186;-77
2022/10/02 04:29:46;;;;;;;13.75;3.90;;;10.70;99.90;;;;;;5088760;28;20048;-79
2022/10/02 04:32:19;;;;;;;17.65;4.47;;;10.70;99.90;;;;;;5078949;28;20040;-79
2022/10/02 04:34:45;;;;;;;17.10;4.43;;;10.70;99.90;;;;;;5080089;28;20522;-80
2022/10/02 04:37:35;;;;;;;14.48;4.30;;;10.70;99.90;;;;;;5097174;28;20036;-80
2022/10/02 04:40:22;;;;;;;12.93;3.85;;;10.60;99.90;;;;;;5088486;28;20040;-79
2022/10/02 04:43:06;;;;;;;18.67;4.18;;;10.70;99.90;;;;;;5090044;28;20053;-80
2022/10/02 04:45:37;;;;;;;16.58;5.63;;;10.60;99.90;;;;;;5098516;28;20060;-80
2022/10/02 04:48:42;;;;;;;12.02;4.25;;;10.70;99.90;;;;;;5097215;28;20032;-76
2022/10/02 04:51:24;;;;;;;17.27;4.82;;;10.70;99.90;;;;;;5086241;28;20043;-77
2022/10/02 04:53:53;;;;;;;19.60;5.03;;;10.70;99.90;;;;;;5048971;28;20127;-74
2022/10/02 04:56:26;;;;;;;17.20;4.90;;;10.70;99.90;;;;;;5084756;28;20075;-77
2022/10/02 04:59:01;;;;;;;23.00;5.45;;;10.70;99.90;;;;;;5082596;28;20384;-76
2022/10/02 05:01:46;;;;;;;16.98;5.05;;;10.70;99.90;;;;;;5069979;28;20126;-74
2022/10/02 05:04:30;;;;;;;19.27;5.20;;;10.70;99.90;;;;;;5070437;28;20044;-75
2022/10/02 05:07:08;;;;;;;18.52;5.50;;;10.60;99.90;;;;;;5064440;28;20060;-76
2022/10/02 05:09:43;;;;;;;15.30;5.43;;;10.60;99.90;;;;;;5073549;28;20075;-79
2022/10/02 05:12:42;;;;;;;24.80;5.45;;;10.60;99.90;;;;;;5067745;28;21432;-80
2022/10/02 05:15:19;;;;;;;25.50;5.82;;;10.60;99.90;;;;;;5071022;28;20074;-79
2022/10/02 05:18:06;;;;;;;20.35;5.85;;;10.60;99.90;;;;;;5060955;28;20742;-73
2022/10/02 05:21:02;;;;;;;18.40;5.35;;;10.60;99.90;;;;;;5066531;28;20088;-77
2022/10/02 05:23:58;;;;;;;22.90;5.40;;;10.60;99.90;;;;;;5002711;28;20053;-75
2022/10/02 05:26:41;;;;;;;16.10;4.53;;;10.60;99.90;;;;;;5009958;28;20046;-75
2022/10/02 05:29:23;;;;;;;19.63;5.00;;;10.60;99.90;;;;;;5006674;28;20753;-82
2022/10/02 05:32:03;;;;;;;19.38;4.70;;;10.60;99.90;;;;;;4983935;28;20072;-76
2022/10/02 05:35:10;;;;;;;26.08;5.15;;;10.60;99.90;;;;;;4993001;28;20053;-74
2022/10/02 05:38:05;;;;;;;23.83;5.10;;;10.60;99.90;;;;;;4977820;28;20057;-74
2022/10/02 05:40:42;;;;;;;20.15;4.90;;;10.60;99.90;;;;;;5000268;28;20061;-75
2022/10/02 05:43:19;;;;;;;17.80;4.45;;;10.70;99.90;;;;;;5006590;28;20050;-78
2022/10/02 05:46:02;;;;;;;16.88;4.53;;;10.70;99.90;;;;;;4996906;28;20038;-77
2022/10/02 05:48:43;;;;;;;21.75;4.30;;;10.70;99.90;;;;;;5006693;28;20049;-77
2022/10/02 05:51:17;;;;;;;24.63;5.00;;;10.70;99.90;;;;;;4988517;28;20057;-76
2022/10/02 05:53:55;;;;;;;22.15;5.03;;;10.80;99.90;;;;;;5008294;28;20064;-77
2022/10/02 05:56:56;;;;;;;22.98;4.22;;;10.80;99.90;;;;;;5011481;28;22588;-76
2022/10/02 05:59:38;;;;;;;17.73;4.70;;;10.90;99.90;;;;;;5004617;28;20420;-79
2022/10/02 06:02:25;;;;;;;19.30;4.63;;;10.90;99.90;;;;;;5089167;28;20044;-79
2022/10/02 06:05:22;;;;;;;20.02;4.35;;;10.90;99.90;;;;;;5065385;28;20044;-78
2022/10/02 06:07:53;;;;;;;20.58;4.90;;;11.00;99.90;;;;;;5085905;28;20052;-78
2022/10/02 06:10:26;;;;;;;18.17;4.55;;;11.00;99.90;;;;;;5082537;28;20498;-78
2022/10/02 06:13:10;;;;;;;20.45;4.53;;;11.00;99.90;;;;;;5074508;28;20043;-79
2022/10/02 06:16:09;;;;;;;19.10;4.70;;;11.10;99.90;;;;;;5090174;28;20532;-78
2022/10/02 06:18:37;;;;;;;22.98;4.30;;;;;;;;;;5092912;28;20372;-78
2022/10/02 06:21:19;;;;;;;19.65;4.40;;;11.20;99.90;;;;;;5091628;28;20119;-77
2022/10/02 06:23:50;;;;;;;29.15;4.50;;;11.20;99.90;;;;;;5092052;28;20051;-78
2022/10/02 06:26:39;;;;;;;19.98;4.90;;;11.20;99.90;;;;;;5078580;28;20057;-77
2022/10/02 06:29:12;;;;;;;21.25;4.70;;;11.30;99.90;;;;;;5079792;28;20043;-78
2022/10/02 06:31:55;;;;;;;19.08;4.88;;;11.40;99.90;;;;;;5087075;28;20502;-79
2022/10/02 06:34:22;;;;;;;18.23;5.00;;;11.70;99.90;;;;;;5088652;28;20044;-79
2022/10/02 06:37:26;;;;;;;19.83;4.72;;;12.10;99.90;;;;;;5072126;28;20043;-78
2022/10/02 06:40:06;;;;;;;14.50;5.00;;;12.50;99.90;;;;;;5078763;28;20566;-78
2022/10/02 06:42:42;;;;;;;18.23;4.55;;;13.40;99.90;;;;;;5074753;28;20495;-78
2022/10/02 06:45:17;;;;;;;15.55;4.28;;;13.60;99.90;;;;;;5072589;28;20395;-80
2022/10/02 06:48:20;;;;;;;16.05;4.40;;;14.00;99.90;;;;;;5089514;28;20471;-78
2022/10/02 06:50:55;;;;;;;21.17;4.53;;;14.50;99.90;;;;;;5072273;28;20052;-78
2022/10/02 06:54:01;;;;;;;18.02;4.13;;;14.30;99.90;;;;;;5092136;28;20084;-78
2022/10/02 06:56:43;;;;;;;16.47;4.20;;;14.00;99.90;;;;;;5060832;28;20052;-79
2022/10/02 06:59:18;;;;;;;15.88;3.60;;;13.90;99.90;;;;;;5062136;28;20067;-78
2022/10/02 07:01:53;;;;;;;15.07;4.00;;;13.70;99.90;;;;;;5091329;28;20032;-78
2022/10/02 07:04:28;;;;;;;14.82;4.40;;;13.60;99.90;;;;;;5085707;28;20044;-77
2022/10/02 07:06:59;;;;;;;10.50;3.67;;;13.50;99.90;;;;;;5079247;28;20145;-77
2022/10/02 07:09:44;;;;;;;11.68;3.95;;;13.50;99.90;;;;;;5074572;28;20048;-77
2022/10/02 07:12:16;;;;;;;14.18;3.50;;;13.50;99.90;;;;;;5082551;28;20047;-77
2022/10/02 07:14:51;;;;;;;17.30;3.83;;;13.50;99.90;;;;;;5096354;28;20055;-76
2022/10/02 07:17:20;;;;;;;10.75;3.22;;;13.60;99.90;;;;;;5097072;28;20052;-76
2022/10/02 07:20:18;;;;;;;14.15;3.35;;;13.60;99.90;;;;;;5083676;28;20044;-77
2022/10/02 07:23:03;;;;;;;13.13;3.50;;;13.70;99.90;;;;;;5094954;28;20115;-76
2022/10/02 07:25:50;;;;;;;12.43;3.25;;;13.70;99.90;;;;;;5055245;28;20427;-77
2022/10/02 07:28:29;;;;;;;13.77;3.95;;;13.80;99.90;;;;;;5095924;28;20080;-77
2022/10/02 07:31:06;;;;;;;11.52;3.50;;;13.80;99.90;;;;;;5094003;28;20032;-77
2022/10/02 07:33:55;;;;;;;18.10;3.10;;;13.90;99.90;;;;;;5095104;28;20475;-76
2022/10/02 07:36:36;;;;;;;14.27;3.03;;;13.90;99.90;;;;;;5094930;28;20101;-77
2022/10/02 07:39:29;;;;;;;14.40;3.50;;;13.80;99.90;;;;;;5096704;28;20368;-77
2022/10/02 07:41:58;;;;;;;14.40;3.42;;;13.90;99.90;;;;;;5077850;28;20051;-77
2022/10/02 07:44:54;;;;;;;12.77;3.25;;;14.00;99.90;;;;;;5094933;28;20048;-77
2022/10/02 07:47:47;;;;;;;14.77;3.42;;;14.10;99.90;;;;;;5094256;28;20051;-77
2022/10/02 07:50:29;;;;;;;14.57;3.33;;;14.20;99.90;;;;;;5081270;28;20094;-77
2022/10/02 07:53:32;;;;;;;16.38;3.33;;;14.40;99.90;;;;;;5095452;28;20036;-77
2022/10/02 07:55:57;;;;;;;13.25;3.08;;;14.70;99.90;;;;;;5066402;28;20457;-79
2022/10/02 07:58:43;;;;;;;17.05;3.65;;;15.20;99.90;;;;;;5093089;28;20116;-79
2022/10/02 08:01:17;;;;;;;12.30;3.30;;;15.50;99.90;;;;;;5088504;28;20040;-80
2022/10/02 08:03:48;;;;;;;15.75;3.60;;;15.50;99.90;;;;;;5071274;28;20040;-78
2022/10/02 08:06:16;;;;;;;14.55;3.30;;;15.70;99.90;;;;;;5062661;28;20399;-78
2022/10/02 08:09:07;;;;;;;15.80;3.10;;;15.70;99.90;;;;;;5094365;28;20051;-79
2022/10/02 08:11:45;;;;;;;11.00;2.50;;;15.80;99.90;;;;;;5084153;28;20433;-77
2022/10/02 08:14:37;;;;;;;12.75;2.65;;;15.70;99.90;;;;;;5083986;28;20441;-77
2022/10/02 08:17:26;;;;;;;11.25;3.28;;;15.70;99.90;;;;;;5061878;28;20046;-77
2022/10/02 08:20:01;;;;;;;9.90;2.50;;;15.80;99.90;;;;;;5091528;28;20536;-77
2022/10/02 08:22:44;;;;;;;14.10;3.15;;;15.80;99.90;;;;;;5094621;28;20482;-77
2022/10/02 08:25:19;;;;;;;12.52;2.83;;;15.90;99.90;;;;;;5095038;28;20036;-76
2022/10/02 08:28:06;;;;;;;7.00;2.50;;;16.00;99.90;;;;;;5094108;28;20051;-78
2022/10/02 08:30:32;;;;;;;13.37;2.57;;;;;;;;;;5071302;28;20055;-77
2022/10/02 08:32:58;;;;;;;11.98;2.53;;;16.00;99.90;;;;;;5094423;28;20059;-77
2022/10/02 08:35:39;;;;;;;14.52;2.60;;;16.10;99.90;;;;;;5094148;28;20040;-77
2022/10/02 08:38:25;;;;;;;17.75;3.10;;;16.20;99.90;;;;;;5074999;28;20040;-77
2022/10/02 08:41:23;;;;;;;12.00;2.70;;;16.20;99.90;;;;;;5093136;28;20177;-78
2022/10/02 08:44:24;;;;;;;9.35;2.42;;;16.10;99.90;;;;;;5082102;28;20052;-77
2022/10/02 08:47:02;;;;;;;10.77;2.40;;;16.10;99.90;;;;;;5076122;28;20499;-77
2022/10/02 08:49:55;;;;;;;9.38;2.30;;;16.10;99.90;;;;;;5062256;28;20048;-77
2022/10/02 08:52:49;;;;;;;10.05;2.60;;;16.10;99.90;;;;;;5086454;28;20403;-77
2022/10/02 08:55:23;;;;;;;14.77;2.60;;;16.10;99.90;;;;;;5094298;28;20048;-77
2022/10/02 08:58:32;;;;;;;11.93;2.72;;;16.10;99.90;;;;;;5093694;28;20048;-77
2022/10/02 09:01:35;;;;;;;10.73;2.97;;;16.00;99.90;;;;;;5071880;28;20093;-77
2022/10/02 09:04:41;;;;;;;12.70;2.83;;;16.20;99.90;;;;;;5094296;28;20118;-77
2022/10/02 09:07:19;;;;;;;9.23;2.37;;;16.20;99.90;;;;;;5089627;28;20040;-77
2022/10/02 09:10:03;;;;;;;13.40;2.47;;;;;;;;;;5090638;28;20036;-77
2022/10/02 09:12:57;;;;;;;8.45;2.30;;;16.50;99.90;;;;;;5091632;28;20487;-77
2022/10/02 09:15:43;;;;;;;14.68;2.50;;;16.60;99.90;;;;;;5093800;28;20506;-77
2022/10/02 09:18:30;;;;;;;13.00;2.47;;;16.80;99.90;;;;;;5083392;28;20040;-77
2022/10/02 09:21:11;;;;;;;10.70;2.72;;;16.70;99.90;;;;;;5093172;28;20066;-77
2022/10/02 09:23:48;;;;;;;12.57;2.53;;;16.70;99.90;;;;;;5083635;28;20044;-77
2022/10/02 09:26:14;;;;;;;13.52;2.30;;;16.70;99.90;;;;;;5094298;28;20119;-76
2022/10/02 09:29:05;;;;;;;13.02;2.30;;;16.70;99.90;;;;;;5094026;28;20446;-76
2022/10/02 09:31:55;;;;;;;11.38;2.38;;;16.50;99.90;;;;;;5093079;28;20079;-77
2022/10/02 09:34:39;;;;;;;12.43;2.70;;;16.40;99.90;;;;;;5092681;28;20507;-76
2022/10/02 09:37:27;;;;;;;11.98;2.65;;;16.50;99.90;;;;;;5076757;28;20547;-76
2022/10/02 09:40:12;;;;;;;10.40;2.47;;;16.50;99.90;;;;;;5089234;28;20081;-76
2022/10/02 09:43:09;;;;;;;8.68;2.33;;;16.50;99.90;;;;;;5065371;28;20044;-76
2022/10/02 09:46:12;;;;;;;9.50;2.28;;;16.30;99.90;;;;;;5105585;27;21160;-54
2022/10/02 09:49:16;;;;;;;13.63;2.10;;;16.20;99.90;;;;;;5097934;28;20048;-54
2022/10/02 09:52:18;;;;;;;10.98;2.03;;;16.10;99.90;;;;;;5095194;28;20079;-52
2022/10/02 09:54:56;;;;;;;11.57;2.22;;;15.90;99.90;;;;;;5092675;28;20440;-49
2022/10/02 09:57:35;;;;;;;8.52;2.13;;;15.90;99.90;;;;;;5087461;28;20055;-53
2022/10/02 10:00:30;;;;;;;11.77;2.17;;;16.00;99.90;;;;;;5085903;28;20044;-54
2022/10/02 10:03:38;;;;;;;11.05;2.17;;;16.20;99.90;;;;;;5096495;28;20058;-53
2022/10/02 10:06:25;;;;;;;13.00;2.33;;;16.50;99.90;;;;;;5088272;28;20048;-54
2022/10/02 10:09:26;;;;;;;8.75;1.92;;;16.50;99.90;;;;;;5102375;28;20048;-52
2022/10/02 10:12:14;;;;;;;10.07;2.20;;;16.60;99.90;;;;;;5087190;28;20044;-53
2022/10/02 10:15:08;;;;;;;11.02;2.17;;;16.70;99.90;;;;;;5085760;28;20048;-52
2022/10/02 10:18:15;;;;;;;9.73;2.00;;;16.70;99.90;;;;;;5095117;28;20130;-55
2022/10/02 10:20:50;;;;;;;10.88;2.40;;;;;;;;;;5085568;28;20041;-54
2022/10/02 10:23:59;;;;;;;9.18;2.33;;;17.00;99.90;;;;;;5109374;28;20043;-55
2022/10/02 10:26:59;;;;;;;12.80;2.50;;;17.20;99.90;;;;;;5088764;28;20528;-53
2022/10/02 10:29:47;;;;;;;10.55;2.42;;;17.40;99.90;;;;;;5091818;28;20110;-53
2022/10/02 10:32:19;;;;;;;11.60;2.45;;;17.40;99.90;;;;;;5096926;28;20094;-51
2022/10/02 10:35:09;;;;;;;8.52;2.08;;;17.50;99.90;;;;;;5108564;28;20090;-54
2022/10/02 10:40:57;;;;;;;10.73;2.17;;;17.50;99.90;;;;;;5106846;28;20048;-55
2022/10/02 10:43:40;;;;;;;6.78;1.90;;;17.40;99.90;;;;;;5087060;28;20051;-54
2022/10/02 10:46:33;;;;;;;11.00;2.45;;;17.80;99.90;;;;;;5081537;28;20043;-51
2022/10/02 10:49:34;;;;;;;12.45;2.17;;;17.90;99.90;;;;;;5087732;28;20040;-53
2022/10/02 10:52:27;;;;;;;8.68;2.22;;;18.10;99.90;;;;;;5092064;28;20040;-51
2022/10/02 10:55:13;;;;;;;9.90;2.35;;;18.10;99.90;;;;;;5103663;28;20075;-55
2022/10/02 10:58:20;;;;;;;8.25;1.77;;;18.10;99.90;;;;;;5078600;28;20501;-55
2022/10/02 11:01:18;;;;;;;8.18;2.00;;;18.10;99.90;;;;;;5090280;28;20079;-52
2022/10/02 11:04:12;;;;;;;7.88;1.65;;;18.10;99.90;;;;;;5070177;28;21653;-52
2022/10/02 11:07:06;;;;;;;5.15;2.10;;;18.00;99.90;;;;;;5086070;28;20501;-53
2022/10/02 11:09:56;;;;;;;8.82;1.80;;;17.90;99.90;;;;;;5079700;28;20032;-51
2022/10/02 11:12:27;;;;;;;7.28;2.17;;;17.90;99.90;;;;;;5084385;28;20565;-54
2022/10/02 11:15:05;;;;;;;10.52;2.10;;;18.00;99.90;;;;;;5080369;28;20079;-54
2022/10/02 11:17:43;;;;;;;11.80;2.25;;;18.10;99.90;;;;;;5079708;28;20050;-55
2022/10/02 11:20:30;;;;;;;8.98;1.92;;;18.10;99.90;;;;;;5072682;28;20125;-54
2022/10/02 11:23:23;;;;;;;7.22;1.75;;;18.30;99.90;;;;;;5060653;28;20048;-53
2022/10/02 11:26:13;;;;;;;7.95;2.00;;;18.30;99.90;;;;;;5078893;28;20045;-53
2022/10/02 11:28:51;;;;;;;6.78;2.25;;;18.40;99.90;;;;;;5077253;28;20440;-53
2022/10/02 11:31:45;;;;;;;7.43;2.00;;;18.40;99.90;;;;;;5087686;28;20044;-53
2022/10/02 11:34:45;;;;;;;12.48;2.47;;;18.50;99.90;;;;;;5080391;28;20474;-54
2022/10/02 11:37:37;;;;;;;5.30;1.45;;;18.60;99.90;;;;;;5068475;28;20803;-54
2022/10/02 11:40:19;;;;;;;9.95;1.92;;;18.60;99.90;;;;;;5067069;28;20033;-51
2022/10/02 11:43:12;;;;;;;8.48;1.98;;;18.50;99.90;;;;;;5054574;28;20048;-55
2022/10/02 11:45:54;;;;;;;8.73;1.95;;;18.40;99.90;;;;;;5072311;28;20140;-51
2022/10/02 11:48:50;;;;;;;9.27;2.13;;;18.30;99.90;;;;;;5083192;28;20053;-53
2022/10/02 11:51:29;;;;;;;7.32;1.67;;;18.10;99.90;;;;;;5083855;28;20137;-51
2022/10/02 11:54:28;;;;;;;11.70;2.45;;;18.20;99.90;;;;;;5091744;28;20051;-54
2022/10/02 11:57:06;;;;;;;9.85;1.80;;;18.40;99.90;;;;;;5077678;28;20040;-53
2022/10/02 12:00:07;;;;;;;8.55;1.77;;;18.60;99.90;;;;;;5078552;28;20497;-54
2022/10/02 12:03:00;;;;;;;7.15;1.70;;;18.70;99.90;;;;;;5068982;28;20072;-53
2022/10/02 12:05:55;;;;;;;10.20;1.60;;;18.80;99.90;;;;;;5080077;28;20131;-53
2022/10/02 12:08:49;;;;;;;8.52;2.00;;;18.90;99.90;;;;;;5071139;28;20044;-54
2022/10/02 12:11:20;;;;;;;5.47;1.70;;;19.00;99.90;;;;;;5069933;28;20037;-53
2022/10/02 12:14:08;;;;;;;10.50;2.40;;;19.00;99.90;;;;;;5080803;28;20505;-55
2022/10/02 12:16:42;;;;;;;9.35;2.00;;;19.20;99.90;;;;;;5077510;28;20127;-55
2022/10/02 12:19:30;;;;;;;7.68;1.92;;;19.20;99.90;;;;;;5075884;28;20071;-55
2022/10/02 12:28:49;;;;;;;7.82;1.80;;;19.50;99.90;;;;;;5064416;28;20044;-52
2022/10/02 12:31:27;;;;;;;10.40;1.83;;;19.40;99.90;;;;;;5082008;28;20040;-53
2022/10/02 12:34:00;;;;;;;9.43;2.00;;;19.00;99.90;;;;;;5077225;28;20059;-50
2022/10/02 12:36:34;;;;;;;6.85;2.13;;;18.40;99.90;;;;;;5077978;28;20120;-49
2022/10/02 12:39:07;;;;;;;8.23;2.17;;;17.90;99.90;;;;;;5073261;28;20626;-52
2022/10/02 12:41:54;;;;;;;6.38;1.73;;;17.50;99.90;;;;;;5072292;28;20091;-50
2022/10/02 12:44:43;;;;;;;8.05;1.92;;;17.20;99.90;;;;;;5061395;28;20052;-48
2022/10/02 12:47:52;;;;;;;10.00;1.80;;;16.90;99.90;;;;;;5073952;28;20093;-49
2022/10/02 12:50:19;;;;;;;11.48;2.30;;;16.90;99.90;;;;;;5085110;28;20047;-49
2022/10/02 12:52:49;;;;;;;7.55;1.83;;;17.10;99.90;;;;;;5082424;28;20505;-49
2022/10/02 12:55:52;;;;;;;7.90;1.90;;;17.30;99.90;;;;;;5085401;28;20044;-53
2022/10/02 12:58:45;;;;;;;9.50;2.03;;;17.50;99.90;;;;;;5066642;28;20037;-50
2022/10/02 13:01:11;;;;;;;9.98;2.10;;;17.50;99.90;;;;;;5066565;28;20048;-51
2022/10/02 13:04:15;;;;;;;8.02;1.88;;;17.70;99.90;;;;;;5074082;28;20041;-49
2022/10/02 13:07:15;;;;;;;8.05;2.03;;;18.00;99.90;;;;;;5069077;28;20040;-50
2022/10/02 13:09:52;;;;;;;9.40;2.08;;;18.50;99.90;;;;;;5058744;28;20044;-53
2022/10/02 13:12:59;;;;;;;6.10;1.70;;;18.70;99.90;;;;;;5076221;28;20156;-53
2022/10/02 13:15:37;;;;;;;10.82;2.42;;;18.60;99.90;;;;;;5050046;28;20044;-50
2022/10/02 13:18:37;;;;;;;7.65;1.65;;;18.30;99.90;;;;;;5067634;28;20051;-54
2022/10/02 13:21:14;;;;;;;6.55;1.90;;;18.00;99.90;;;;;;5086071;28;20044;-53
2022/10/02 13:23:52;;;;;;;5.60;1.95;;;17.80;99.90;;;;;;5083669;28;20106;-54
2022/10/02 13:26:56;;;;;;;7.85;1.50;;;17.80;99.90;;;;;;5056464;28;20048;-54
2022/10/02 13:29:56;;;;;;;7.60;2.03;;;17.70;99.90;;;;;;5017621;28;20419;-52
2022/10/02 13:32:33;;;;;;;7.38;2.00;;;17.50;99.90;;;;;;5019513;28;20042;-52
2022/10/02 13:35:23;;;;;;;7.83;2.10;;;17.60;99.90;;;;;;5019819;28;20049;-51
2022/10/02 13:38:10;;;;;;;8.70;2.00;;;17.50;99.90;;;;;;5017614;28;20712;-50
2022/10/02 13:40:53;;;;;;;7.35;1.67;;;17.30;99.90;;;;;;5013365;28;20069;-52
2022/10/02 13:43:41;;;;;;;9.80;1.92;;;17.20;99.90;;;;;;5010689;28;20057;-50
2022/10/02 13:46:19;;;;;;;9.73;2.72;;;17.30;99.90;;;;;;5017923;28;20056;-52
2022/10/02 13:48:54;;;;;;;7.53;1.75;;;17.30;99.90;;;;;;5008190;28;20068;-53
2022/10/02 13:51:50;;;;;;;5.65;2.08;;;17.40;99.90;;;;;;5009480;28;20041;-49
2022/10/02 13:54:40;;;;;;;6.00;1.80;;;17.30;99.90;;;;;;5009258;28;20136;-50
2022/10/02 13:57:30;;;;;;;8.88;1.98;;;17.10;99.90;;;;;;5012327;28;20302;-49
2022/10/02 14:00:08;;;;;;;9.38;2.10;;;16.90;99.90;;;;;;5049984;28;20055;-50
2022/10/02 14:02:45;;;;;;;7.65;1.60;;;16.70;99.90;;;;;;5057794;28;20049;-50
2022/10/02 14:05:42;;;;;;;7.72;2.08;;;16.60;99.90;;;;;;5071656;28;20041;-48
2022/10/02 14:08:42;;;;;;;15.32;2.75;;;16.50;99.90;;;;;;5078173;28;20056;-51
2022/10/02 14:11:18;;;;;;;10.48;2.42;;;16.30;99.90;;;;;;5067440;28;20485;-49